Temp     Hi    Low   Out    Dew  Wind  Wind   Wind    Hi    Hi   Wind   Heat    THW   THSW                Rain  Solar   Solar Hi Solar   UV    UV    Hi     Heat    Cool    In     In    In     In           Wind  Wind    ISS   Arc.
  Date    Time     Out   Temp   Temp   Hum    Pt. Speed   Dir    Run Speed   Dir  Chill  Index  Index  Index   Bar    Rain  Rate   Rad.  Energy    Rad.  Index  Dose   UV     D-D     D-D    Temp   Hum    Dew   Heat     ET   Samp   Tx   Recept  Int.
---------------------------------------------------------------------------------------------------------------------------------------------------------------------------------------------------------------------------------------------------------
 6/12/21   0.15    9.4    9.4    8.4    73    4.8  17.7    NE   4.43  33.8   WNW    6.4    9.2    6.2    4.8   568.7  3.05  17.5     0     0.00      0     0.0  0.00   0.0   0.093   0.000   13.9    61    6.5   13.3    0.00   349    1    100.0   15 
 6/12/21   0.30    7.1    9.5    7.1    76    3.2  12.9   NNE   3.22  30.6   NNE    4.7    6.9    4.4    2.9   568.7  2.54  17.5     0     0.00      0     0.0  0.00   0.0   0.117   0.000   13.9    60    6.3   13.2    0.00   340    1     99.4   15 
 6/12/21   0.45    6.3    7.3    6.3    79    2.9   8.0     N   2.01  20.9    NE    4.7    6.1    4.5    2.8   568.7  2.03  10.9     0     0.00      0     0.0  0.00   0.0   0.126   0.000   13.9    60    6.3   13.2    0.00   315    1     92.1   15 
 6/12/21   1.00    6.7    6.7    5.7    82    3.9   4.8   NNW   1.21  19.3     S    6.1    6.6    6.0    4.3   568.7  1.52   8.4     0     0.00      0     0.0  0.00   0.0   0.121   0.000   13.8    60    6.2   13.1    0.03   317    1     92.7   15 
 6/12/21   1.15    7.7    7.7    6.8    84    5.1   9.7   SSW   2.41  30.6     W    5.9    7.6    5.9    4.3   568.7  1.78   8.4     0     0.00      0     0.0  0.00   0.0   0.111   0.000   13.8    61    6.4   13.2    0.00   272    1     79.5   15 
 6/12/21   1.30    7.7    7.7    7.6    85    5.3   9.7     S   2.41  25.7     S    5.9    7.7    5.9    4.3   568.7  1.52   7.9     0     0.00      0     0.0  0.00   0.0   0.111   0.000   13.8    61    6.4   13.2    0.00   337    1     98.5   15 
 6/12/21   1.45    6.7    7.7    6.7    85    4.3   4.8   NNE   1.21  11.3   NNE    6.1    6.6    6.0    4.3   568.7  1.78   7.9     0     0.00      0     0.0  0.00   0.0   0.122   0.000   13.8    61    6.4   13.2    0.00   348    1    100.0   15 
 6/12/21   2.00    6.6    6.7    6.6    86    4.4   1.6    NE   0.40   6.4    NE    6.6    6.5    6.5    4.8   568.7  1.27   7.1     0     0.00      0     0.0  0.00   0.0   0.123   0.000   13.8    62    6.7   13.2    0.03   351    1    100.0   15 
 6/12/21   2.15    6.7    6.8    6.5    86    4.5   1.6   NNE   0.40   6.4   NNE    6.7    6.6    6.6    5.0   568.7  1.52   6.9     0     0.00      0     0.0  0.00   0.0   0.122   0.000   13.8    62    6.6   13.1    0.00   350    1    100.0   15 
 6/12/21   2.30    6.7    6.7    6.6    87    4.7   1.6   NNE   0.40   4.8   NNE    6.7    6.7    6.7    5.1   568.7  1.27   6.9     0     0.00      0     0.0  0.00   0.0   0.122   0.000   13.8    62    6.6   13.1    0.00   351    1    100.0   15 
 6/12/21   2.45    6.4    6.8    6.3    87    4.4   3.2   NNE   0.80   8.0   NNE    6.4    6.4    6.4    4.8   568.7  1.52   6.6     0     0.00      0     0.0  0.00   0.0   0.124   0.000   13.8    62    6.6   13.1    0.00   351    1    100.0   15 
 6/12/21   3.00    6.3    6.4    6.1    88    4.4   1.6   NNE   0.40   4.8   NNE    6.3    6.3    6.3    4.6   568.7  1.27   6.6     0     0.00      0     0.0  0.00   0.0   0.126   0.000   13.8    62    6.6   13.1    0.00   351    1    100.0   15 
 6/12/21   3.15    6.4    6.4    6.3    88    4.5   1.6   NNE   0.40   4.8   NNE    6.4    6.4    6.4    4.8   568.7  1.27   6.3     0     0.00      0     0.0  0.00   0.0   0.124   0.000   13.7    62    6.5   13.0    0.00   350    1    100.0   15 
 6/12/21   3.30    6.0    6.4    6.0    88    4.2   3.2   NNE   0.80   6.4   NNE    6.0    6.0    6.0    4.3   568.7  1.27   6.1     0     0.00      0     0.0  0.00   0.0   0.128   0.000   13.7    62    6.5   13.0    0.00   351    1    100.0   15 
 6/12/21   3.45    5.7    6.0    5.7    88    3.8   1.6   NNE   0.40   6.4   NNE    5.7    5.6    5.6    3.9   568.7  1.27   6.1     0     0.00      0     0.0  0.00   0.0   0.132   0.000   13.7    62    6.5   13.0    0.00   349    1    100.0   15 
 6/12/21   4.00    5.6    5.7    5.6    88    3.8   3.2   NNE   0.80   8.0   NNE    5.6    5.6    5.6    3.9   568.7  1.27   7.1     0     0.00      0     0.0  0.00   0.0   0.133   0.000   13.7    62    6.5   13.0    0.00   350    1    100.0   15 
 6/12/21   4.15    5.8    5.8    5.6    89    4.1   3.2   NNW   0.80   6.4   NNE    5.8    5.8    5.8    4.1   568.7  1.27   6.9     0     0.00      0     0.0  0.00   0.0   0.131   0.000   13.7    62    6.5   13.0    0.00   351    1    100.0   15 
 6/12/21   4.30    5.8    5.9    5.8    89    4.2   1.6    NW   0.40   8.0   NNW    5.8    5.8    5.8    4.2   568.7  1.27   7.1     0     0.00      0     0.0  0.00   0.0   0.130   0.000   13.7    62    6.5   13.0    0.00   350    1    100.0   15 
 6/12/21   4.45    5.7    5.8    5.7    89    4.0   0.0    NW   0.00   6.4    NW    5.7    5.7    5.7    4.1   568.7  1.27   6.3     0     0.00      0     0.0  0.00   0.0   0.131   0.000   13.7    62    6.5   13.0    0.00   351    1    100.0   15 
 6/12/21   5.00    5.4    5.7    5.4    89    3.8   3.2    NW   0.80   6.4    NE    5.4    5.4    5.4    3.7   568.7  1.27   6.1     0     0.00      0     0.0  0.00   0.0   0.134   0.000   13.6    62    6.5   12.9    0.00   352    1    100.0   15 
 6/12/21   5.15    5.2    5.4    5.2    89    3.5   3.2   ENE   0.80   4.8   ENE    5.1    5.1    5.1    3.4   568.7  1.02   5.8     0     0.00      0     0.0  0.00   0.0   0.137   0.000   13.6    62    6.5   12.9    0.00   351    1    100.0   15 
 6/12/21   5.30    4.7    5.2    4.7    89    3.0   3.2   ENE   0.80   6.4   ENE    4.6    4.6    4.5    2.8   568.7  1.02   5.3     0     0.00      0     0.0  0.00   0.0   0.142   0.000   13.6    62    6.5   12.9    0.00   350    1    100.0   15 
 6/12/21   5.45    4.8    4.8    4.6    89    3.1   4.8    NE   1.21   9.7    NE    3.9    4.7    3.9    2.2   568.7  1.02   5.3     0     0.00      0     0.0  0.00   0.0   0.141   0.000   13.6    62    6.4   12.9    0.00   351    1    100.0   15 
 6/12/21   6.00    4.8    4.9    4.7    89    3.2   3.2    NE   0.80   6.4    NE    4.8    4.8    4.7    3.1   568.7  1.02   5.1     0     0.00      0     0.0  0.00   0.0   0.141   0.000   13.6    61    6.2   12.9    0.00   351    1    100.0   15 
 6/12/21   6.15    5.3    5.3    4.8    90    3.8   6.4   NNE   1.61   8.0    NE    4.0    5.3    4.0    2.3   568.7  0.51   4.8     0     0.00      0     0.0  0.00   0.0   0.135   0.000   13.6    61    6.2   12.9    0.00   351    1    100.0   15 
 6/12/21   6.30    5.8    5.8    5.3    89    4.2   6.4     N   1.61   9.7     N    4.6    5.8    4.6    2.9   568.7  1.02   4.6     0     0.00      0     0.0  0.00   0.0   0.130   0.000   13.6    61    6.2   12.9    0.00   351    1    100.0   15 
 6/12/21   6.45    6.1    6.1    5.8    89    4.4   4.8     N   1.21   9.7     N    5.4    6.1    5.4    3.8   568.7  1.02   4.6     0     0.00      0     0.0  0.00   0.0   0.127   0.000   13.6    61    6.2   12.9    0.00   351    1    100.0   15 
 6/12/21   7.00    6.4    6.6    6.1    89    4.8   4.8     N   1.21   8.0     N    5.8    6.4    5.8    4.2   568.7  0.76   4.3     0     0.00      0     0.0  0.00   0.0   0.124   0.000   13.4    62    6.3   12.8    0.00   351    1    100.0   15 
 6/12/21   7.15    6.1    6.5    6.1    88    4.3   1.6   NNE   0.40   4.8   NNE    6.1    6.1    6.1    4.4   568.7  0.76   4.3     0     0.00      0     0.0  0.00   0.0   0.127   0.000   13.4    62    6.3   12.8    0.00   350    1    100.0   15 
 6/12/21   7.30    5.8    6.2    5.8    88    4.0   0.0   NNE   0.00   6.4   NNE    5.8    5.8    5.8    4.1   568.7  0.76   3.8     0     0.00      0     0.0  0.00   0.0   0.130   0.000   13.4    62    6.3   12.8    0.00   350    1    100.0   15 
 6/12/21   7.45    6.2    6.3    5.8    88    4.4   4.8     N   1.21   9.7     N    5.6    6.2    5.6    3.9   568.7  0.76   3.8     3     0.06      9     0.0  0.00   0.0   0.126   0.000   13.4    62    6.3   12.8    0.00   351    1    100.0   15 
 6/12/21   8.00    6.9    6.9    6.2    86    4.8   6.4   NNW   1.61  11.3     N    5.8    6.9    5.8    4.3   568.7  0.76   3.8    16     0.34     23     0.0  0.00   0.0   0.119   0.000   13.4    62    6.3   12.8    0.00   351    1    100.0   15 
 6/12/21   8.15    7.4    7.5    6.9    82    4.6   6.4   NNW   1.61  14.5     N    6.4    7.4    6.3    5.2   568.7  0.51   3.6    35     0.75     56     0.0  0.00   0.0   0.113   0.000   13.4    62    6.3   12.8    0.00   352    1    100.0   15 
 6/12/21   8.30    8.4    8.4    7.4    76    4.5   9.7   NNE   2.41  20.9   NNE    6.8    8.3    6.7    6.1   568.7  0.76   3.6    84     1.81    113     0.0  0.00   0.0   0.103   0.000   13.4    62    6.3   12.8    0.00   336    1     98.2   15 
 6/12/21   8.45    9.6    9.6    8.5    67    3.8  14.5   NNE   3.62  30.6     N    7.3    9.3    7.0    6.8   568.7  0.51   3.6   113     2.43    125     0.0  0.00   0.0   0.091   0.000   13.4    61    6.1   12.8    0.00   259    1     75.7   15 
 6/12/21   9.00    9.7    9.7    9.7    66    3.6  14.5   NNE   3.62  29.0     N    7.3    9.3    7.0    8.3   568.7  0.51   3.0   137     2.95    162     0.0  0.00   0.0   0.090   0.000   13.4    60    5.8   12.7    0.05   216    1     63.2   15 
 6/12/21   9.15    9.7    9.7    9.7    65    3.5  11.3   NNE   2.82  30.6    NE    8.1    9.4    7.8   10.7   568.7  0.76   3.0   212     4.56    232     0.0  0.00   0.0   0.090   0.000   13.4    60    5.8   12.7    0.00   243    1     71.1   15 
 6/12/21   9.30   10.1   10.1    9.7    62    3.1  12.9   NNE   3.22  29.0   NNE    8.1    9.7    7.7   11.2   568.7  0.25   2.5   248     5.33    262     0.0  0.00   0.0   0.086   0.000   13.4    60    5.8   12.7    0.00   260    1     76.0   15 
 6/12/21   9.45   10.3   10.3   10.1    63    3.6  16.1    NE   4.02  37.0    NE    7.8    9.9    7.4   10.9   568.7  0.00   0.0   280     6.02    292     0.0  0.00   0.0   0.083   0.000   13.4    59    5.6   12.7    0.00   338    1     98.8   15 
 6/12/21  10.00   10.6   10.6   10.3    61    3.4  17.7    NE   4.43  43.5   NNE    7.8   10.1    7.3   11.0   568.7  0.00   0.0   306     6.58    316     0.0  0.00   0.0   0.080   0.000   13.6    58    5.4   12.8    0.18   349    1    100.0   15 
 6/12/21  10.15   10.7   10.7   10.6    62    3.7  16.1    NE   4.02  35.4   NNE    8.2   10.2    7.7   11.7   568.7  0.00   0.0   330     7.10    339     0.0  0.00   0.0   0.080   0.000   13.6    57    5.2   12.8    0.00   348    1    100.0   15 
 6/12/21  10.30   10.8   10.8   10.7    59    3.1  14.5   NNE   3.62  29.0   NNE    8.7   10.3    8.2   12.4   568.7  0.00   0.0   352     7.57    364     0.0  0.00   0.0   0.078   0.000   13.6    58    5.5   12.8    0.00   351    1    100.0   15 
 6/12/21  10.45   10.9   10.9   10.8    59    3.2  16.1   NNE   4.02  30.6   NNE    8.5   10.4    7.9   12.2   568.7  0.00   0.0   375     8.06    385     0.0  0.00   0.0   0.077   0.000   13.7    57    5.3   12.8    0.00   338    1     98.8   15 
 6/12/21  11.00   11.0   11.1   10.9    59    3.3  14.5   NNE   3.62  29.0   NNE    8.9   10.4    8.3   12.8   568.7  0.00   0.0   393     8.45    401     0.0  0.00   0.0   0.076   0.000   13.8    57    5.4   12.9    0.23   351    1    100.0   15 
 6/12/21  11.15   11.2   11.2   11.0    59    3.4  17.7     N   4.43  30.6   NNE    8.4   10.6    7.8   12.1   568.7  0.00   0.0   408     8.77    415     0.0  0.00   0.0   0.075   0.000   13.8    56    5.2   13.0    0.00   350    1    100.0   15 
 6/12/21  11.30   11.2   11.3   11.2    57    3.0  19.3     N   4.83  33.8    NE    8.2   10.6    7.6   11.6   568.7  0.00   0.0   418     8.99    424     0.0  0.00   0.0   0.074   0.000   13.9    55    5.0   13.1    0.00   352    1    100.0   15 
 6/12/21  11.45   11.3   11.3   11.2    57    3.1  22.5     N   5.63  40.2    NE    7.9   10.7    7.2   11.0   568.7  0.00   0.0   425     9.14    429     0.0  0.00   0.0   0.073   0.000   14.0    55    5.1   13.1    0.00   348    1    100.0   15 
 6/12/21  12.00   11.4   11.4   11.3    54    2.5  24.1     N   6.04  43.5     N    7.9   10.7    7.1   10.8   568.7  0.00   0.0   431     9.27    432     0.0  0.00   0.0   0.072   0.000   14.1    54    4.9   13.2    0.30   351    1    100.0   15 
 6/12/21  12.15   11.5   11.5   11.4    54    2.5  24.1     N   6.04  41.8     N    7.9   10.7    7.2   10.8   568.7  0.00   0.0   432     9.29    432     0.0  0.00   0.0   0.071   0.000   14.2    53    4.7   13.2    0.00   351    1    100.0   15 
 6/12/21  12.30   11.6   11.6   11.4    53    2.3  22.5     N   5.63  43.5     N    8.2   10.8    7.4   11.1   568.7  0.00   0.0   431     9.27    432     0.0  0.00   0.0   0.071   0.000   14.3    53    4.8   13.3    0.00   352    1    100.0   15 
 6/12/21  12.45   11.7   11.7   11.5    53    2.4  24.1     N   6.04  41.8   NNE    8.1   10.8    7.3   10.8   568.7  0.00   0.0   427     9.18    431     0.0  0.00   0.0   0.069   0.000   14.3    52    4.6   13.3    0.00   349    1    100.0   15 
 6/12/21  13.00   11.5   11.8   11.5    54    2.5  25.7     N   6.44  49.9   NNE    7.8   10.7    7.0   10.5   568.7  0.00   0.0   428     9.20    443     0.0  0.00   0.0   0.071   0.000   14.4    52    4.7   13.4    0.33   350    1    100.0   15 
 6/12/21  13.15   11.6   11.6   11.4    56    3.1  24.1     N   6.04  49.9    NE    8.1   10.9    7.3   10.8   568.7  0.00   0.0   410     8.82    413     0.0  0.00   0.0   0.070   0.000   14.6    52    4.8   13.6    0.00   351    1    100.0   15 
 6/12/21  13.30   11.6   11.6   11.4    54    2.6  25.7     N   6.44  46.7   NNW    7.8   10.8    7.1   10.4   568.7  0.00   0.0   374     8.04    425     0.0  0.00   0.0   0.071   0.000   14.6    52    4.9   13.6    0.00   351    1    100.0   15 
 6/12/21  13.45   11.5   11.6   11.4    52    2.0  24.1     N   6.04  45.1   NNE    7.9   10.7    7.1   10.3   568.7  0.00   0.0   334     7.18    408     0.0  0.00   0.0   0.071   0.000   14.6    51    4.6   13.6    0.00   351    1    100.0   15 
 6/12/21  14.00   11.6   11.7   11.4    53    2.3  19.3     N   4.83  35.4     N    8.6   10.8    7.8   10.9   568.7  0.00   0.0   282     6.06    374     0.0  0.00   0.0   0.071   0.000   14.6    51    4.6   13.6    0.28   350    1    100.0   15 
 6/12/21  14.15   11.7   11.7   11.4    55    2.9  22.5     N   5.63  41.8   NNE    8.3   10.9    7.5   10.1   568.7  0.00   0.0   243     5.23    383     0.0  0.00   0.0   0.069   0.000   14.6    51    4.6   13.6    0.00   350    1    100.0   15 
 6/12/21  14.30   11.6   11.7   11.5    54    2.6  20.9     N   5.23  40.2   NNE    8.4   10.8    7.6   10.5   568.7  0.00   0.0   265     5.70    359     0.0  0.00   0.0   0.071   0.000   14.4    51    4.4   13.4    0.00   351    1    100.0   15 
 6/12/21  14.45   11.6   11.6   11.4    54    2.6  19.3   NNW   4.83  40.2   NNW    8.7   10.8    7.9    9.6   568.7  0.00   0.0   158     3.40    295     0.0  0.00   0.0   0.070   0.000   14.3    51    4.3   13.3    0.00   352    1    100.0   15 
 6/12/21  15.00   11.7   11.7   11.6    54    2.7  20.9     N   5.23  43.5     N    8.5   10.9    7.7   10.3   568.7  0.00   0.0   227     4.88    283     0.0  0.00   0.0   0.069   0.000   14.2    51    4.2   13.1    0.20   351    1    100.0   15 
 6/12/21  15.15   11.8   11.8   11.7    54    2.8  16.1     N   4.02  35.4    NE    9.6   11.1    8.8   11.6   568.7  0.00   0.0   223     4.80    248     0.0  0.00   0.0   0.068   0.000   14.2    52    4.4   13.2    0.00   351    1    100.0   15 
 6/12/21  15.30   11.8   11.9   11.7    51    2.0  17.7     N   4.43  40.2     N    9.1   10.9    8.2   10.1   568.7  0.00   0.0   164     3.53    192     0.0  0.00   0.0   0.068   0.000   14.1    52    4.4   13.1    0.00   351    1    100.0   15 
 6/12/21  15.45   11.6   11.8   11.6    54    2.6  17.7     N   4.43  32.2     N    8.9   10.8    8.1    9.2   568.7  0.00   0.0   112     2.41    146     0.0  0.00   0.0   0.071   0.000   14.0    52    4.3   13.0    0.00   352    1    100.0   15 
 6/12/21  16.00   11.6   11.7   11.6    52    2.0  17.7     N   4.43  35.4     N    8.9   10.7    8.1    8.5   568.7  0.00   0.0    78     1.68     97     0.0  0.00   0.0   0.071   0.000   15.2    50    4.9   14.1    0.15   350    1    100.0   15 
 6/12/21  16.15   11.5   11.6   11.5    55    2.8  16.1   NNW   4.02  32.2    NE    9.1   10.8    8.4    7.2   568.7  0.00   0.0    35     0.75     60     0.0  0.00   0.0   0.071   0.000   15.1    50    4.7   13.9    0.00   351    1    100.0   15 
 6/12/21  16.30   11.4   11.6   11.4    54    2.4  16.1   NNW   4.02  33.8   NNW    9.0   10.6    8.2    6.8   568.7  0.00   0.0    17     0.37     21     0.0  0.00   0.0   0.072   0.000   14.6    50    4.2   13.4    0.00   350    1    100.0   15 
 6/12/21  16.45   11.3   11.4   11.3    55    2.6  12.9   NNW   3.22  25.7   NNW    9.7   10.6    8.9    7.3   568.7  0.00   0.0     6     0.13      9     0.0  0.00   0.0   0.073   0.000   14.2    51    4.2   13.1    0.00   352    1    100.0   15 
 6/12/21  17.00   11.4   11.5   11.3    55    2.7  14.5   NNW   3.62  30.6   WNW    9.4   10.7    8.7    7.0   568.7  0.00   0.0     0     0.00      0     0.0  0.00   0.0   0.072   0.000   14.0    51    4.0   12.9    0.08   350    1    100.0   15 
 6/12/21  17.15   11.4   11.5   11.3    53    2.2  12.9     N   3.22  30.6   NNW    9.8   10.7    9.0    7.3   568.7  0.00   0.0     0     0.00      0     0.0  0.00   0.0   0.072   0.000   13.9    52    4.2   12.9    0.00   350    1    100.0   15 
 6/12/21  17.30   11.3   11.5   11.3    53    2.0  11.3   NNE   2.82  25.7     N   10.0   10.5    9.2    7.4   568.7  0.00   0.0     0     0.00      0     0.0  0.00   0.0   0.073   0.000   13.9    52    4.2   12.9    0.00   351    1    100.0   15 
 6/12/21  17.45   11.4   11.4   11.3    53    2.2  11.3   NNE   2.82  25.7     N   10.2   10.7    9.4    7.6   568.7  0.00   0.0     0     0.00      0     0.0  0.00   0.0   0.072   0.000   13.8    52    4.1   12.8    0.00   351    1    100.0   15 
 6/12/21  18.00   11.3   11.5   11.3    53    2.1   8.0   NNE   2.01  24.1   NNE   10.6   10.6    9.8    7.9   568.7  0.00   0.0     0     0.00      0     0.0  0.00   0.0   0.073   0.000   13.8    53    4.4   12.9    0.08   351    1    100.0   15 
 6/12/21  18.15   11.3   11.3   11.2    54    2.3   6.4   NNE   1.61  20.9    NE   10.8   10.6   10.1    8.3   568.7  0.00   0.0     0     0.00      0     0.0  0.00   0.0   0.073   0.000   13.8    53    4.4   12.8    0.00   351    1    100.0   15 
 6/12/21  18.30   10.9   11.3   10.9    53    1.7   8.0    NE   2.01  22.5   NNE   10.1   10.2    9.4    7.6   568.7  0.00   0.0     0     0.00      0     0.0  0.00   0.0   0.077   0.000   13.8    54    4.6   12.8    0.00   351    1    100.0   15 
 6/12/21  18.45   10.9   11.0   10.9    50    0.9  11.3    NE   2.82  22.5   NNE    9.5   10.1    8.7    6.8   568.7  0.00   0.0     0     0.00      0     0.0  0.00   0.0   0.078   0.000   13.8    53    4.4   12.8    0.00   351    1    100.0   15 
 6/12/21  19.00   10.8   11.0   10.8    49    0.5  12.9    NE   3.22  27.4   NNE    9.1   10.1    8.3    6.5   568.7  0.00   0.0     0     0.00      0     0.0  0.00   0.0   0.078   0.000   13.7    52    4.0   12.7    0.08   351    1    100.0   15 
 6/12/21  19.15   10.7   10.8   10.7    48    0.1  11.3    NE   2.82  24.1    NE    9.2    9.9    8.4    6.6   568.7  0.00   0.0     0     0.00      0     0.0  0.00   0.0   0.080   0.000   13.7    52    4.0   12.7    0.00   350    1    100.0   15 
 6/12/21  19.30   10.6   10.8   10.6    49    0.3   9.7    NE   2.41  17.7   NNE    9.4    9.8    8.7    6.8   568.7  0.00   0.0     0     0.00      0     0.0  0.00   0.0   0.080   0.000   13.7    52    4.0   12.7    0.00   349    1    100.0   15 
 6/12/21  19.45   10.9   10.9   10.6    47    0.1  14.5    NE   3.62  27.4   NNE    8.8   10.1    7.9    6.2   568.7  0.00   0.0     0     0.00      0     0.0  0.00   0.0   0.077   0.000   13.7    51    3.7   12.7    0.00   350    1    100.0   15 
 6/12/21  20.00   10.9   10.9   10.8    47    0.1  12.9    NE   3.22  24.1    NE    9.2   10.1    8.3    6.5   568.7  0.00   0.0     0     0.00      0     0.0  0.00   0.0   0.077   0.000   13.7    51    3.7   12.7    0.08   352    1    100.0   15 
 6/12/21  20.15   10.8   11.1   10.7    47   -0.0   9.7   NNE   2.41  24.1     N    9.7   10.0    8.9    6.9   568.7  0.00   0.0     0     0.00      0     0.0  0.00   0.0   0.078   0.000   13.6    51    3.7   12.6    0.00   351    1    100.0   15 
 6/12/21  20.30   10.7   10.9   10.7    48    0.1   6.4   NNE   1.61  24.1   NNE   10.1    9.9    9.3    7.4   568.7  0.00   0.0     0     0.00      0     0.0  0.00   0.0   0.080   0.000   13.6    52    3.9   12.6    0.00   349    1    100.0   15 
 6/12/21  20.45   10.4   10.7   10.4    49    0.1   3.2    NE   0.80  14.5   NNE   10.4    9.7    9.7    7.8   568.7  0.00   0.0     0     0.00      0     0.0  0.00   0.0   0.083   0.000   13.6    52    3.9   12.6    0.00   350    1    100.0   15 
 6/12/21  21.00    9.3   10.4    9.3    55    0.7   1.6    NE   0.40   8.0    NE    9.3    8.8    8.8    6.9   568.7  0.00   0.0     0     0.00      0     0.0  0.00   0.0   0.094   0.000   13.6    53    4.2   12.7    0.05   349    1    100.0   15 
 6/12/21  21.15    8.4    9.3    8.3    60    1.1   1.6   WNW   0.40  12.9   WNW    8.4    8.0    8.0    6.1   568.7  0.00   0.0     0     0.00      0     0.0  0.00   0.0   0.103   0.000   13.6    53    4.2   12.7    0.00   350    1    100.0   15 
 6/12/21  21.30    7.7    8.5    7.7    62    0.8   1.6   WNW   0.40   8.0   WNW    7.7    7.2    7.2    5.3   568.7  0.00   0.0     0     0.00      0     0.0  0.00   0.0   0.111   0.000   13.6    53    4.2   12.7    0.00   349    1    100.0   15 
 6/12/21  21.45    7.0    7.7    7.0    66    1.1   3.2   WNW   0.80   9.7   WNW    7.0    6.6    6.6    4.7   568.7  0.00   0.0     0     0.00      0     0.0  0.00   0.0   0.118   0.000   13.6    54    4.5   12.7    0.00   351    1    100.0   15 
 6/12/21  22.00    7.0    7.3    7.0    65    0.9   3.2   WNW   0.80   9.7   WNW    7.0    6.6    6.6    4.7   568.7  0.00   0.0     0     0.00      0     0.0  0.00   0.0   0.118   0.000   13.6    54    4.5   12.7    0.03   351    1    100.0   15 
 6/12/21  22.15    6.1    7.0    6.1    68    0.6   1.6   WNW   0.40   6.4   WNW    6.1    5.8    5.8    3.9   568.7  0.00   0.0     0     0.00      0     0.0  0.00   0.0   0.127   0.000   13.6    54    4.4   12.6    0.00   351    1    100.0   15 
 6/12/21  22.30    5.8    6.1    5.8    69    0.6   1.6   WNW   0.40   6.4   WNW    5.8    5.5    5.5    3.6   568.7  0.00   0.0     0     0.00      0     0.0  0.00   0.0   0.130   0.000   13.6    54    4.4   12.6    0.00   350    1    100.0   15 
 6/12/21  22.45    5.5    5.8    5.5    70    0.5   1.6   WNW   0.40   4.8   WNW    5.5    5.2    5.2    3.3   568.7  0.00   0.0     0     0.00      0     0.0  0.00   0.0   0.134   0.000   13.6    54    4.4   12.6    0.00   350    1    100.0   15 
 6/12/21  23.00    5.1    5.5    5.1    71    0.3   1.6   WNW   0.40   4.8   WNW    5.1    4.8    4.8    2.9   568.7  0.00   0.0     0     0.00      0     0.0  0.00   0.0   0.138   0.000   13.4    54    4.3   12.5    0.03   351    1    100.0   15 
 6/12/21  23.15    4.7    5.2    4.7    72    0.1   1.6   WNW   0.40   6.4   WNW    4.7    4.4    4.4    2.6   568.7  0.00   0.0     0     0.00      0     0.0  0.00   0.0   0.142   0.000   13.4    54    4.3   12.5    0.00   351    1    100.0   15 
 6/12/21  23.30    4.3    4.7    4.3    72   -0.3   3.2   WNW   0.80   6.4   WNW    4.1    4.0    3.8    1.9   568.7  0.00   0.0     0     0.00      0     0.0  0.00   0.0   0.146   0.000   13.4    53    4.0   12.4    0.00   350    1    100.0   15 
 6/12/21  23.45    3.6    4.3    3.6    73   -0.8   1.6    NW   0.40   8.0    NW    3.6    3.3    3.3    1.4   568.7  0.00   0.0     0     0.00      0     0.0  0.00   0.0   0.153   0.000   13.4    53    4.0   12.4    0.00   350    1    100.0   15 
 7/12/21  00.00    3.3    3.7    3.3    74   -0.9   3.2    NW   0.80   6.4    NW    3.1    3.1    2.9    0.9   568.7  0.00   0.0     0     0.00      0     0.0  0.00   0.0   0.156   0.000   13.3    53    3.9   12.3    0.03   350    1    100.0   15 
 7/12/21   0.15    3.4    3.4    3.1    75   -0.6   3.2   NNW   0.80   8.0    NW    3.2    3.2    2.9    1.0   568.7  0.00   0.0     0     0.00      0     0.0  0.00   0.0   0.156   0.000   13.3    52    3.6   12.3    0.00   350    1    100.0   15 
 7/12/21   0.30    2.8    3.4    2.7    77   -0.9   4.8   NNW   1.21   8.0   NNW    1.7    2.6    1.4   -0.5   568.7  0.00   0.0     0     0.00      0     0.0  0.00   0.0   0.162   0.000   13.2    52    3.6   12.2    0.00   348    1    100.0   15 
 7/12/21   0.45    2.7    3.3    2.7    77   -0.9   3.2   NNW   0.80   6.4   NNW    2.4    2.5    2.2    0.3   568.7  0.00   0.0     0     0.00      0     0.0  0.00   0.0   0.163   0.000   13.2    53    3.8   12.3    0.00   350    1    100.0   15 
 7/12/21   1.00    2.8    2.9    2.7    78   -0.7   3.2   NNW   0.80   6.4   NNW    2.5    2.6    2.3    0.4   568.7  0.00   0.0     0     0.00      0     0.0  0.00   0.0   0.162   0.000   13.2    53    3.8   12.3    0.03   350    1    100.0   15 
 7/12/21   1.15    2.5    2.8    2.4    79   -0.8   4.8   NNW   1.21   8.0   NNW    1.3    2.3    1.2   -0.8   568.7  0.00   0.0     0     0.00      0     0.0  0.00   0.0   0.165   0.000   13.1    52    3.5   12.2    0.00   350    1    100.0   15 
 7/12/21   1.30    2.3    2.8    2.3    79   -1.0   3.2     N   0.80   8.0   NNW    1.9    2.1    1.8   -0.2   568.7  0.00   0.0     0     0.00      0     0.0  0.00   0.0   0.167   0.000   13.1    53    3.7   12.1    0.00   351    1    100.0   15 
 7/12/21   1.45    2.1    2.7    2.0    79   -1.2   3.2     N   0.80   6.4     N    1.7    1.9    1.6   -0.4   568.7  0.00   0.0     0     0.00      0     0.0  0.00   0.0   0.169   0.000   13.1    52    3.4   12.1    0.00   351    1    100.0   15 
 7/12/21   2.00    1.9    2.2    1.9    80   -1.1   3.2     N   0.80   6.4     N    1.6    1.8    1.4   -0.6   568.7  0.00   0.0     0     0.00      0     0.0  0.00   0.0   0.171   0.000   13.1    52    3.4   12.1    0.03   350    1    100.0   15 
 7/12/21   2.15    2.2    2.2    1.9    81   -0.7   3.2     N   0.80   6.4     N    1.9    2.1    1.7   -0.2   568.7  0.00   0.0     0     0.00      0     0.0  0.00   0.0   0.168   0.000   12.9    52    3.3   12.0    0.00   351    1    100.0   15 
 7/12/21   2.30    2.2    2.4    2.2    81   -0.7   3.2     N   0.80   6.4     N    1.9    2.1    1.7   -0.2   568.7  0.00   0.0     0     0.00      0     0.0  0.00   0.0   0.168   0.000   12.9    52    3.3   12.0    0.00   350    1    100.0   15 
 7/12/21   2.45    2.3    2.3    1.8    82   -0.5   3.2     N   0.80   8.0     N    1.9    2.1    1.8   -0.2   568.7  0.00   0.0     0     0.00      0     0.0  0.00   0.0   0.167   0.000   12.9    52    3.3   11.9    0.00   351    1    100.0   15 
 7/12/21   3.00    1.8    2.2    1.7    81   -1.1   3.2     N   0.80   6.4     N    1.4    1.6    1.2   -0.7   568.7  0.00   0.0     0     0.00      0     0.0  0.00   0.0   0.172   0.000   12.9    52    3.3   11.9    0.03   352    1    100.0   15 
 7/12/21   3.15    1.7    1.8    1.4    83   -0.9   4.8     N   1.21   8.0     N    0.4    1.6    0.3   -1.6   568.7  0.00   0.0     0     0.00      0     0.0  0.00   0.0   0.173   0.000   12.9    52    3.3   11.9    0.00   350    1    100.0   15 
 7/12/21   3.30    1.6    2.2    1.6    82   -1.2   3.2     N   0.80   6.4     N    1.1    1.4    0.9   -1.0   568.7  0.00   0.0     0     0.00      0     0.0  0.00   0.0   0.175   0.000   12.8    52    3.2   11.8    0.00   351    1    100.0   15 
 7/12/21   3.45    1.4    1.7    1.3    83   -1.2   3.2     N   0.80   4.8     N    0.9    1.2    0.8   -1.2   568.7  0.00   0.0     0     0.00      0     0.0  0.00   0.0   0.177   0.000   12.8    52    3.2   11.8    0.00   351    1    100.0   15 
 7/12/21   4.00    1.8    1.9    1.4    84   -0.6   3.2     N   0.80   6.4     N    1.4    1.7    1.3   -0.6   568.7  0.00   0.0     0     0.00      0     0.0  0.00   0.0   0.172   0.000   12.7    52    3.1   11.8    0.00   352    1    100.0   15 
 7/12/21   4.15    1.8    2.1    1.8    83   -0.8   4.8     N   1.21   8.0     N    0.5    1.7    0.4   -1.6   568.7  0.00   0.0     0     0.00      0     0.0  0.00   0.0   0.172   0.000   12.7    52    3.1   11.8    0.00   351    1    100.0   15 
 7/12/21   4.30    1.3    1.8    1.3    84   -1.1   3.2     N   0.80   6.4     N    0.9    1.2    0.7   -1.2   568.7  0.00   0.0     0     0.00      0     0.0  0.00   0.0   0.177   0.000   12.7    52    3.1   11.8    0.00   351    1    100.0   15 
 7/12/21   4.45    1.8    1.9    1.4    84   -0.6   1.6     N   0.40   4.8     N    1.8    1.7    1.7   -0.3   568.7  0.00   0.0     0     0.00      0     0.0  0.00   0.0   0.172   0.000   12.6    52    3.0   11.7    0.00   351    1    100.0   15 
 7/12/21   5.00    2.1    2.2    1.8    84   -0.4   3.2   NNE   0.80   8.0   NNE    1.7    1.9    1.6   -0.4   568.7  0.00   0.0     0     0.00      0     0.0  0.00   0.0   0.170   0.000   12.6    52    3.0   11.7    0.00   351    1    100.0   15 
 7/12/21   5.15    2.3    2.5    2.0    83   -0.3   3.2     N   0.80   9.7     N    1.9    2.2    1.8   -0.1   568.7  0.00   0.0     0     0.00      0     0.0  0.00   0.0   0.167   0.000   12.6    53    3.3   11.7    0.00   352    1    100.0   15 
 7/12/21   5.30    2.3    2.7    2.1    83   -0.3   3.2     N   0.80   8.0     N    2.0    2.2    1.9   -0.1   568.7  0.00   0.0     0     0.00      0     0.0  0.00   0.0   0.167   0.000   12.6    53    3.3   11.7    0.00   351    1    100.0   15 
 7/12/21   5.45    2.1    2.5    2.1    83   -0.5   1.6     N   0.40   9.7     N    2.1    2.0    2.0    0.1   568.7  0.00   0.0     0     0.00      0     0.0  0.00   0.0   0.169   0.000   12.6    53    3.3   11.7    0.00   351    1    100.0   15 
 7/12/21   6.00    3.2    3.3    1.9    84    0.8   1.6     N   0.40  11.3     N    3.2    3.1    3.1    1.2   568.7  0.00   0.0     0     0.00      0     0.0  0.00   0.0   0.157   0.000   12.6    53    3.3   11.7    0.00   351    1    100.0   15 
 7/12/21   6.15    2.9    3.3    2.7    82    0.2   3.2   NNW   0.80  11.3   NNW    2.7    2.8    2.5    0.6   568.7  0.00   0.0     0     0.00      0     0.0  0.00   0.0   0.160   0.000   12.6    53    3.3   11.7    0.00   350    1    100.0   15 
 7/12/21   6.30    3.0    3.0    2.9    82    0.2   1.6   NNW   0.40   4.8   NNW    3.0    2.8    2.8    0.9   568.7  0.00   0.0     0     0.00      0     0.0  0.00   0.0   0.160   0.000   12.6    53    3.3   11.7    0.00   351    1    100.0   15 
 7/12/21   6.45    2.8    3.0    2.8    81   -0.2   3.2   NNW   0.80   6.4   NNW    2.5    2.6    2.3    0.4   568.7  0.00   0.0     0     0.00      0     0.0  0.00   0.0   0.162   0.000   12.6    53    3.3   11.7    0.00   351    1    100.0   15 
 7/12/21   7.00    2.3    2.7    2.3    82   -0.5   3.2   NNW   0.80   6.4   NNW    1.9    2.1    1.8   -0.2   568.7  0.00   0.0     0     0.00      0     0.0  0.00   0.0   0.167   0.000   12.6    53    3.2   11.7    0.00   351    1    100.0   15 
 7/12/21   7.15    2.7    2.9    2.3    82   -0.0   1.6   NNW   0.40   4.8   NNW    2.7    2.6    2.6    0.6   568.7  0.00   0.0     0     0.00      0     0.0  0.00   0.0   0.163   0.000   12.6    53    3.2   11.7    0.00   351    1    100.0   15 
 7/12/21   7.30    3.4    3.4    2.7    83    0.8   1.6   NNW   0.40   6.4   NNW    3.4    3.3    3.3    1.4   568.7  0.00   0.0     0     0.00      0     0.0  0.00   0.0   0.156   0.000   12.6    54    3.5   11.7    0.00   351    1    100.0   15 
 7/12/21   7.45    3.2    3.5    3.2    81    0.2   1.6   NNW   0.40   6.4   NNW    3.2    3.0    3.0    1.2   568.7  0.00   0.0     4     0.09      7     0.0  0.00   0.0   0.158   0.000   12.4    54    3.4   11.6    0.00   350    1    100.0   15 
 7/12/21   8.00    3.3    3.4    3.1    82    0.6   1.6   NNW   0.40   4.8   NNW    3.3    3.2    3.2    1.4   568.7  0.00   0.0    10     0.22     11     0.0  0.00   0.0   0.156   0.000   12.4    54    3.4   11.6    0.00   351    1    100.0   15 
 7/12/21   8.15    4.0    4.2    3.3    81    1.0   1.6    NW   0.40   3.2    NW    4.0    3.8    3.8    2.2   568.7  0.00   0.0    19     0.41     26     0.0  0.00   0.0   0.149   0.000   12.4    54    3.4   11.6    0.00   351    1    100.0   15 
 7/12/21   8.30    4.1    4.1    3.7    82    1.3   3.2    NW   0.80   4.8    NW    3.9    3.9    3.7    2.4   568.7  0.00   0.0    43     0.92     58     0.0  0.00   0.0   0.149   0.000   12.4    54    3.4   11.6    0.00   352    1    100.0   15 
 7/12/21   8.45    5.2    5.3    4.0    81    2.2   1.6    NW   0.40   3.2    NW    5.2    5.1    5.1    4.2   568.7  0.00   0.0    72     1.55     79     0.0  0.00   0.0   0.137   0.000   12.4    54    3.4   11.6    0.00   350    1    100.0   15 
 7/12/21   9.00    5.7    5.8    5.2    81    2.7   0.0    NW   0.00   4.8    NW    5.7    5.6    5.6    6.3   568.7  0.00   0.0    88     1.89    118     0.0  0.00   0.0   0.131   0.000   12.6    55    3.7   11.7    0.03   351    1    100.0   15 
 7/12/21   9.15    6.7    6.7    5.7    80    3.5   0.0   NNW   0.00   4.8   NNW    6.7    6.6    6.6    7.5   568.7  0.00   0.0    91     1.96    113     0.0  0.00   0.0   0.122   0.000   12.6    56    4.0   11.8    0.00   351    1    100.0   15 
 7/12/21   9.30    7.6    7.8    6.7    79    4.1   0.0    NW   0.00   4.8    NW    7.6    7.4    7.4   10.1   568.7  0.00   0.0   201     4.32    323     0.0  0.00   0.0   0.112   0.000   12.6    56    4.0   11.8    0.00   352    1    100.0   15 
 7/12/21   9.45    9.5    9.5    7.6    78    5.9   0.0    NW   0.00   6.4    NW    9.5    9.4    9.4   13.8   568.7  0.00   0.0   287     6.17    353     0.0  0.00   0.0   0.092   0.000   12.6    57    4.3   11.8    0.00   351    1    100.0   15 
 7/12/21  10.00   10.9   10.9    9.6    74    6.5   1.6     E   0.40   9.7     E   10.9   10.7   10.7   14.0   568.7  0.00   0.0   215     4.62    415     0.0  0.00   0.0   0.077   0.000   12.6    57    4.3   11.8    0.08   351    1    100.0   15 
 7/12/21  10.15   12.2   12.2   10.9    67    6.3   1.6     E   0.40   6.4   SSE   12.2   11.7   11.7   18.6   568.7  0.00   0.0   437     9.40    515     0.0  0.00   0.0   0.064   0.000   12.7    58    4.7   11.9    0.00   351    1    100.0   15 
 7/12/21  10.30   12.6   12.7   12.2    62    5.5   0.0    SE   0.00   3.2   SSE   12.6   11.9   11.9   16.7   568.7  0.00   0.0   350     7.53    480     0.0  0.00   0.0   0.060   0.000   12.8    58    4.7   12.0    0.00   351    1    100.0   15 
 7/12/21  10.45   13.3   13.3   12.5    61    6.0   0.0   ---   0.00   0.0   ---   13.3   12.7   12.7   18.3   568.7  0.00   0.0   407     8.75    538     0.0  0.00   0.0   0.052   0.000   12.9    58    4.8   12.1    0.00   351    1    100.0   15 
 7/12/21  11.00   13.8   13.9   13.3    61    6.4   0.0   ---   0.00   0.0   ---   13.8   13.1   13.1   20.1   568.7  0.00   0.0   497    10.69    513     0.0  0.00   0.0   0.047   0.000   12.9    58    4.9   12.2    0.20   351    1    100.0   15 
 7/12/21  11.15   13.7   13.8   13.4    63    6.7   0.0   ---   0.00   0.0   ---   13.7   13.1   13.1   19.2   568.7  0.00   0.0   464     9.98    494     0.0  0.00   0.0   0.049   0.000   13.1    59    5.3   12.3    0.00   351    1    100.0   15 
 7/12/21  11.30   13.2   13.7   13.2    64    6.6   1.6   SSE   0.40  11.3    SE   13.2   12.6   12.6   17.8   568.7  0.00   0.0   422     9.07    432     0.0  0.00   0.0   0.053   0.000   13.2    59    5.4   12.4    0.00   349    1    100.0   15 
 7/12/21  11.45   13.4   13.4   13.2    65    6.9   1.6   SSE   0.40   6.4    SE   13.4   12.8   12.8   17.9   568.7  0.00   0.0   417     8.97    446     0.0  0.00   0.0   0.052   0.000   13.3    59    5.4   12.5    0.00   352    1    100.0   15 
 7/12/21  12.00   13.4   13.5   13.3    66    7.2   1.6    SE   0.40   6.4     S   13.4   12.8   12.8   18.1   568.7  0.00   0.0   434     9.33    468     0.0  0.00   0.0   0.052   0.000   13.4    59    5.6   12.7    0.23   350    1    100.0   15 
 7/12/21  12.15   13.7   13.7   13.3    66    7.5   0.0   SSE   0.00   4.8   SSE   13.7   13.2   13.2   18.4   568.7  0.00   0.0   439     9.44    457     0.0  0.00   0.0   0.048   0.000   13.6    59    5.7   12.8    0.00   351    1    100.0   15 
 7/12/21  12.30   13.6   13.8   13.6    65    7.1   0.0   ---   0.00   0.0   ---   13.6   13.0   13.0   18.3   568.7  0.00   0.0   443     9.53    454     0.0  0.00   0.0   0.050   0.000   13.7    59    5.8   12.9    0.00   351    1    100.0   15 
 7/12/21  12.45   14.1   14.1   13.6    65    7.6   0.0   SSW   0.00   3.2   SSW   14.1   13.5   13.5   18.9   568.7  0.00   0.0   447     9.61    455     0.0  0.00   0.0   0.045   0.000   13.8    59    6.0   13.1    0.00   351    1    100.0   15 
 7/12/21  13.00   14.2   14.3   14.1    65    7.7   0.0     S   0.00   6.4     S   14.2   13.6   13.6   19.2   568.7  0.00   0.0   455     9.78    462     0.0  0.00   0.0   0.043   0.000   13.9    59    6.1   13.2    0.23   350    1    100.0   15 
 7/12/21  13.15   14.4   14.6   14.2    65    7.9   0.0     E   0.00   4.8   ESE   14.4   13.9   13.9   19.8   568.7  0.00   0.0   470    10.11    501     0.0  0.00   0.0   0.041   0.000   14.1    59    6.2   13.3    0.00   351    1    100.0   15 
 7/12/21  13.30   14.4   14.6   14.4    67    8.3   8.0   NNW   2.01  22.5   NNE   14.2   13.9   13.7   20.2   568.7  0.00   0.0   497    10.69    517     0.0  0.00   0.0   0.041   0.000   14.2    59    6.3   13.4    0.00   350    1    100.0   15 
 7/12/21  13.45   14.1   14.4   14.1    68    8.3  11.3   NNE   2.82  22.5   NNW   13.4   13.6   12.9   18.4   568.7  0.00   0.0   433     9.31    464     0.0  0.00   0.0   0.044   0.000   14.3    59    6.4   13.5    0.00   352    1    100.0   15 
 7/12/21  14.00   14.2   14.2   14.1    69    8.6   9.7   NNE   2.41  17.7   NNE   13.7   13.7   13.2   17.9   568.7  0.00   0.0   366     7.87    392     0.0  0.00   0.0   0.043   0.000   14.3    59    6.4   13.6    0.25   351    1    100.0   15 
 7/12/21  14.15   14.2   14.3   14.1    68    8.4   8.0   NNE   2.01  20.9   NNE   13.9   13.7   13.4   18.1   568.7  0.00   0.0   341     7.33    355     0.0  0.00   0.0   0.043   0.000   14.3    60    6.7   13.6    0.00   351    1    100.0   15 
 7/12/21  14.30   14.3   14.3   14.2    67    8.3   9.7   NNE   2.41  17.7    NE   13.9   13.8   13.4   17.8   568.7  0.00   0.0   316     6.79    325     0.0  0.00   0.0   0.042   0.000   14.2    60    6.5   13.4    0.00   351    1    100.0   15 
 7/12/21  14.45   14.1   14.3   14.1    68    8.3   9.7     N   2.41  20.9   NNE   13.6   13.6   13.1   17.3   568.7  0.00   0.0   281     6.04    304     0.0  0.00   0.0   0.044   0.000   14.0    60    6.4   13.3    0.00   351    1    100.0   15 
 7/12/21  15.00   14.0   14.2   14.0    67    8.0  11.3     N   2.82  19.3     N   13.2   13.5   12.7   16.4   568.7  0.00   0.0   253     5.44    276     0.0  0.00   0.0   0.045   0.000   13.9    61    6.5   13.3    0.18   351    1    100.0   15 
 7/12/21  15.15   13.9   14.1   13.8    66    7.6   8.0   NNW   2.01  20.9   NNW   13.6   13.3   13.0   15.9   568.7  0.00   0.0   190     4.09    225     0.0  0.00   0.0   0.046   0.000   13.8    61    6.4   13.2    0.00   351    1    100.0   15 
 7/12/21  15.30   13.7   13.9   13.7    66    7.4   6.4   NNW   1.61  12.9   NNW   13.6   13.1   13.1   14.7   568.7  0.00   0.0   122     2.62    169     0.0  0.00   0.0   0.049   0.000   13.8    61    6.4   13.1    0.00   351    1    100.0   15 
 7/12/21  15.45   13.4   13.7   13.4    64    6.7   8.0   NNW   2.01  16.1   NNW   13.0   12.8   12.4   12.8   568.7  0.00   0.0    65     1.40     95     0.0  0.00   0.0   0.052   0.000   13.7    61    6.3   13.0    0.00   351    1    100.0   15 
 7/12/21  16.00   12.9   13.4   12.9    65    6.5   4.8   NNW   1.21  11.3   NNW   12.9   12.4   12.4   12.4   568.7  0.00   0.0    45     0.97     47     0.0  0.00   0.0   0.056   0.000   13.7    61    6.3   13.0    0.08   352    1    100.0   15 
 7/12/21  16.15   12.9   13.0   12.9    65    6.5   3.2   NNW   0.80   9.7   NNW   12.9   12.3   12.3   11.2   568.7  0.00   0.0    37     0.80     40     0.0  0.00   0.0   0.057   0.000   13.6    61    6.2   12.9    0.00   350    1    100.0   15 
 7/12/21  16.30   12.2   12.9   12.2    68    6.4   0.0   NNW   0.00   4.8   NNW   12.2   11.7   11.7   10.4   568.7  0.00   0.0    22     0.47     30     0.0  0.00   0.0   0.064   0.000   13.6    61    6.2   12.9    0.00   347    1    100.0   15 
 7/12/21  16.45   11.7   12.2   11.6    69    6.2   1.6   NNW   0.40   4.8   NNW   11.7   11.3   11.3    9.8   568.7  0.00   0.0     6     0.13     14     0.0  0.00   0.0   0.069   0.000   13.6    61    6.2   12.9    0.00   350    1    100.0   15 
 7/12/21  17.00   11.5   11.7   11.5    70    6.2   4.8    NE   1.21   8.0    NE   11.5   11.1   11.1    9.6   568.7  0.00   0.0     0     0.00      0     0.0  0.00   0.0   0.071   0.000   13.4    62    6.3   12.8    0.03   352    1    100.0   15 
 7/12/21  17.15   10.8   11.5   10.8    72    5.9   1.6    NE   0.40   4.8    NE   10.8   10.5   10.5    8.9   568.7  0.00   0.0     0     0.00      0     0.0  0.00   0.0   0.079   0.000   13.4    62    6.3   12.8    0.00   350    1    100.0   15 
 7/12/21  17.30    9.8   10.8    9.8    73    5.2   1.6    NE   0.40   4.8    NE    9.8    9.6    9.6    8.0   568.7  0.00   0.0     0     0.00      0     0.0  0.00   0.0   0.089   0.000   13.4    62    6.3   12.7    0.00   350    1    100.0   15 
 7/12/21  17.45    9.1    9.8    9.0    74    4.7   1.6    NE   0.40   4.8    NE    9.1    8.9    8.9    7.2   568.7  0.00   0.0     0     0.00      0     0.0  0.00   0.0   0.097   0.000   13.4    62    6.3   12.7    0.00   350    1    100.0   15 
 7/12/21  18.00    8.9    9.1    8.9    75    4.7   0.0    NE   0.00   1.6    NE    8.9    8.8    8.8    7.1   568.7  0.00   0.0     0     0.00      0     0.0  0.00   0.0   0.098   0.000   13.3    62    6.1   12.6    0.03   350    1    100.0   15 
 7/12/21  18.15    9.1    9.1    8.7    76    5.1   0.0   ---   0.00   0.0   ---    9.1    8.9    8.9    7.3   568.7  0.00   0.0     0     0.00      0     0.0  0.00   0.0   0.096   0.000   13.3    62    6.1   12.6    0.00   350    1    100.0   15 
 7/12/21  18.30    8.9    9.4    8.9    75    4.7   0.0    NE   0.00   3.2    NE    8.9    8.8    8.8    7.1   568.7  0.00   0.0     0     0.00      0     0.0  0.00   0.0   0.098   0.000   13.3    62    6.1   12.6    0.00   349    1    100.0   15 
 7/12/21  18.45    8.7    8.9    8.7    77    4.9   0.0    NE   0.00   3.2    NE    8.7    8.6    8.6    6.9   568.7  0.00   0.0     0     0.00      0     0.0  0.00   0.0   0.101   0.000   13.2    62    6.1   12.6    0.00   349    1    100.0   15 
 7/12/21  19.00    8.3    8.7    8.3    78    4.7   0.0    NE   0.00   3.2    NE    8.3    8.2    8.2    6.5   568.7  0.00   0.0     0     0.00      0     0.0  0.00   0.0   0.105   0.000   13.2    62    6.1   12.6    0.03   349    1    100.0   15 
 7/12/21  19.15    8.2    8.3    8.2    79    4.7   0.0    NE   0.00   3.2    NE    8.2    8.1    8.1    6.4   568.7  0.00   0.0     0     0.00      0     0.0  0.00   0.0   0.106   0.000   13.2    62    6.1   12.6    0.00   351    1    100.0   15 
 7/12/21  19.30    7.8    8.2    7.8    80    4.6   0.0   ---   0.00   0.0   ---    7.8    7.7    7.7    6.1   568.7  0.00   0.0     0     0.00      0     0.0  0.00   0.0   0.109   0.000   13.2    62    6.1   12.6    0.00   351    1    100.0   15 
 7/12/21  19.45    7.9    7.9    7.8    81    4.8   0.0    NE   0.00   1.6    NE    7.9    7.8    7.8    6.1   568.7  0.00   0.0     0     0.00      0     0.0  0.00   0.0   0.109   0.000   13.2    62    6.1   12.6    0.00   350    1    100.0   15 
 7/12/21  20.00    8.1    8.1    7.9    81    5.0   0.0    NE   0.00   1.6    NE    8.1    7.9    7.9    6.3   568.7  0.00   0.0     0     0.00      0     0.0  0.00   0.0   0.107   0.000   13.1    62    6.0   12.4    0.03   349    1    100.0   15 
© www.elbaexplorer.com